Time;durP1;ratioP1;P1;durP2;ratioP2;P2;SDS_P1;SDS_P2;PMS_P1;PMS_P2;Temp;Humidity;BMP_temperature;BMP_pressure;BME280_temperature;BME280_humidity;BME280_pressure;Samples;Min_cycle;Max_cycle;Signal;HPM_P1;HPM_P2
2022/10/10 00:02:04;;;;;;;;;;;16.30;99.90;;;;;;4987734;28;19910;-77
2022/10/10 00:04:31;;;;;;;;;;;16.40;99.90;;;;;;4980830;28;19910;-76
2022/10/10 00:06:57;;;;;;;;;;;16.60;99.90;;;;;;4951081;28;19914;-78
2022/10/10 00:09:24;;;;;;;;;;;16.80;99.90;;;;;;4982207;28;20457;-77
2022/10/10 00:11:50;;;;;;;;;;;17.00;99.90;;;;;;4968126;28;19911;-81
2022/10/10 00:14:17;;;;;;;;;;;17.10;99.90;;;;;;4969496;28;20324;-78
2022/10/10 00:16:44;;;;;;;;;;;17.30;99.90;;;;;;4969207;28;19918;-80
2022/10/10 00:19:11;;;;;;;;;;;17.30;99.90;;;;;;4966287;28;19926;-82
2022/10/10 00:21:37;;;;;;;;;;;17.40;99.90;;;;;;4966192;28;19910;-80
2022/10/10 00:24:04;;;;;;;;;;;17.30;99.90;;;;;;4968983;28;19910;-79
2022/10/10 00:26:31;;;;;;;;;;;17.30;99.90;;;;;;4968793;28;19911;-82
2022/10/10 00:28:57;;;;;;;;;;;17.30;99.90;;;;;;4968957;28;19980;-78
2022/10/10 00:31:24;;;;;;;;;;;17.40;99.90;;;;;;4985897;28;19910;-77
2022/10/10 00:33:51;;;;;;;;;;;17.40;99.90;;;;;;4987699;28;19921;-79
2022/10/10 00:36:19;;;;;;;;;;;17.40;99.90;;;;;;4988467;28;19960;-82
2022/10/10 00:38:46;;;;;;;;;;;17.30;99.90;;;;;;4988316;28;19910;-75
2022/10/10 00:41:12;;;;;;;;;;;17.20;99.90;;;;;;4987850;28;19910;-81
2022/10/10 00:43:39;;;;;;;;;;;17.20;99.90;;;;;;4988556;28;19909;-80
2022/10/10 00:46:06;;;;;;;;;;;17.30;99.90;;;;;;4988062;28;19910;-79
2022/10/10 00:48:34;;;;;;;;;;;17.20;99.90;;;;;;4988024;28;20280;-76
2022/10/10 00:51:06;;;;;;;;;;;17.30;99.90;;;;;;4985753;28;19914;-74
2022/10/10 00:53:44;;;;;;;;;;;17.30;99.90;;;;;;4968544;28;19945;-79
2022/10/10 00:56:12;;;;;;;;;;;17.40;99.90;;;;;;4967443;28;20302;-77
2022/10/10 00:58:43;;;;;;;;;;;17.60;99.90;;;;;;4967304;28;19914;-77
2022/10/10 01:01:10;;;;;;;;;;;17.80;99.90;;;;;;4979041;28;19916;-75
2022/10/10 01:03:37;;;;;;;;;;;18.00;99.90;;;;;;4968557;28;19910;-73
2022/10/10 01:06:04;;;;;;;;;;;18.30;99.90;;;;;;5023458;28;19921;-80
2022/10/10 01:08:31;;;;;;;;;;;18.70;99.90;;;;;;4967599;28;20383;-80
2022/10/10 01:10:57;;;;;;;;;;;18.90;99.30;;;;;;4973444;28;20393;-78
2022/10/10 01:13:24;;;;;;;;;;;18.80;98.90;;;;;;4961068;28;19948;-80
2022/10/10 01:16:17;;;;;;;;;;;18.80;98.80;;;;;;4968247;28;20336;-80
2022/10/10 01:18:52;;;;;;;;;;;18.90;99.10;;;;;;4970433;28;19923;-80
2022/10/10 01:21:29;;;;;;;;;;;18.80;98.50;;;;;;4969754;28;20639;-76
2022/10/10 01:24:19;;;;;;;;;;;18.60;98.10;;;;;;4967510;28;19914;-78
2022/10/10 01:26:57;;;;;;;;;;;18.40;99.00;;;;;;4970027;28;19921;-81
2022/10/10 01:29:32;;;;;;;;;;;18.30;98.30;;;;;;5072525;28;19929;-80
2022/10/10 01:32:10;;;;;;;;;;;18.00;98.50;;;;;;4987526;28;20575;-82
2022/10/10 01:35:00;;;;;;;;;;;17.90;98.10;;;;;;4999050;28;19925;-80
2022/10/10 01:37:29;;;;;;;;;;;17.70;98.70;;;;;;4971020;28;19920;-81
2022/10/10 01:40:16;;;;;;;;;;;17.60;98.30;;;;;;4975447;28;20335;-77
2022/10/10 01:42:42;;;;;;;;;;;17.40;98.40;;;;;;4980831;28;20363;-74
2022/10/10 01:45:09;;;;;;;;;;;17.40;98.90;;;;;;4970421;28;19911;-75
2022/10/10 01:47:35;;;;;;;;;;;17.20;98.90;;;;;;4970010;28;19934;-79
2022/10/10 01:50:05;;;;;;;;;;;17.00;98.80;;;;;;4976254;28;19914;-79
2022/10/10 01:52:44;;;;;;;;;;;16.90;99.00;;;;;;4976517;28;19969;-77
2022/10/10 01:55:28;;;;;;;;;;;16.80;98.90;;;;;;4970642;28;19910;-80
2022/10/10 01:58:04;;;;;;;;;;;16.70;99.00;;;;;;5036304;28;19922;-78
2022/10/10 02:00:35;;;;;;;;;;;16.70;99.70;;;;;;4975952;28;19910;-77
2022/10/10 02:03:02;;;;;;;;;;;16.60;99.90;;;;;;4970469;28;20023;-73
2022/10/10 02:05:36;;;;;;;;;;;16.60;99.80;;;;;;4970777;28;20009;-76
2022/10/10 02:08:06;;;;;;;;;;;16.60;99.90;;;;;;4970525;28;20289;-74
2022/10/10 02:10:34;;;;;;;;;;;16.50;99.90;;;;;;4980344;28;19964;-75
2022/10/10 02:13:02;;;;;;;;;;;16.50;99.90;;;;;;4969958;28;20394;-79
2022/10/10 02:15:30;;;;;;;;;;;16.50;99.70;;;;;;4970415;28;19959;-76
2022/10/10 02:17:58;;;;;;;;;;;16.40;99.90;;;;;;4968649;28;20001;-73
2022/10/10 02:20:25;;;;;;;;;;;16.40;99.90;;;;;;4961044;28;19911;-72
2022/10/10 02:22:53;;;;;;;;;;;16.40;99.90;;;;;;4971496;28;19946;-78
2022/10/10 02:25:25;;;;;;;;;;;16.40;99.90;;;;;;4971006;28;19917;-71
2022/10/10 02:27:57;;;;;;;;;;;16.40;99.90;;;;;;4970208;28;19926;-74
2022/10/10 02:30:24;;;;;;;;;;;16.40;99.90;;;;;;4973149;28;19914;-72
2022/10/10 02:32:54;;;;;;;;;;;16.40;99.90;;;;;;4969746;28;19968;-77
2022/10/10 02:35:26;;;;;;;;;;;16.40;99.90;;;;;;5033478;28;20381;-78
2022/10/10 02:37:53;;;;;;;;;;;16.40;99.90;;;;;;4964699;28;19921;-74
2022/10/10 02:40:22;;;;;;;;;;;16.40;99.90;;;;;;4964050;28;19914;-78
2022/10/10 02:42:49;;;;;;;;;;;16.50;99.90;;;;;;4960014;28;19914;-77
2022/10/10 02:45:17;;;;;;;;;;;16.50;99.90;;;;;;4963023;28;20016;-77
2022/10/10 02:47:44;;;;;;;;;;;16.50;99.90;;;;;;5036498;28;20001;-75
2022/10/10 02:50:11;;;;;;;;;;;16.50;99.90;;;;;;4971716;28;20004;-74
2022/10/10 02:52:38;;;;;;;;;;;16.60;99.90;;;;;;4970345;28;20402;-73
2022/10/10 02:55:05;;;;;;;;;;;16.70;99.90;;;;;;4970323;28;19976;-77
2022/10/10 02:57:31;;;;;;;;;;;16.70;99.90;;;;;;4970014;28;19914;-77
2022/10/10 02:59:58;;;;;;;;;;;16.90;99.90;;;;;;4975176;28;19936;-76
2022/10/10 03:02:24;;;;;;;;;;;17.10;99.90;;;;;;5038505;28;20335;-76
2022/10/10 03:04:51;;;;;;;;;;;17.20;99.90;;;;;;4970280;28;19914;-74
2022/10/10 03:07:18;;;;;;;;;;;17.40;99.90;;;;;;4969473;28;19923;-74
2022/10/10 03:09:44;;;;;;;;;;;17.70;99.90;;;;;;4969587;28;19918;-75
2022/10/10 03:12:11;;;;;;;;;;;17.70;99.90;;;;;;4968790;28;19914;-75
2022/10/10 03:14:38;;;;;;;;;;;17.70;99.90;;;;;;4968953;28;20377;-78
2022/10/10 03:17:04;;;;;;;;;;;17.70;99.90;;;;;;5032262;28;19922;-78
2022/10/10 03:19:31;;;;;;;;;;;17.80;99.90;;;;;;4971708;28;20018;-77
2022/10/10 03:21:58;;;;;;;;;;;17.70;99.40;;;;;;4969167;28;20001;-72
2022/10/10 03:24:25;;;;;;;;;;;17.70;99.90;;;;;;4969478;28;20059;-77
2022/10/10 03:26:52;;;;;;;;;;;17.70;99.50;;;;;;4968845;28;19910;-71
2022/10/10 03:29:18;;;;;;;;;;;17.70;99.70;;;;;;4969744;28;20398;-76
2022/10/10 03:31:45;;;;;;;;;;;17.70;99.50;;;;;;4969105;28;19918;-78
2022/10/10 03:34:11;;;;;;;;;;;17.70;99.00;;;;;;4963061;28;20047;-79
2022/10/10 03:36:38;;;;;;;;;;;17.70;98.90;;;;;;4960435;28;19948;-76
2022/10/10 03:39:06;;;;;;;;;;;17.70;98.80;;;;;;4969296;28;19910;-76
2022/10/10 03:41:33;;;;;;;;;;;17.80;99.00;;;;;;4971698;28;19969;-74
2022/10/10 03:44:00;;;;;;;;;;;17.80;98.70;;;;;;4968224;28;19922;-79
2022/10/10 03:46:26;;;;;;;;;;;17.90;98.80;;;;;;5026531;28;19914;-80
2022/10/10 03:48:53;;;;;;;;;;;17.80;97.70;;;;;;4964414;28;19914;-79
2022/10/10 03:51:20;;;;;;;;;;;17.90;98.20;;;;;;4972950;28;19921;-78
2022/10/10 03:53:46;;;;;;;;;;;18.00;98.00;;;;;;4969180;28;20379;-76
2022/10/10 03:56:13;;;;;;;;;;;18.20;98.10;;;;;;4968950;28;19997;-79
2022/10/10 03:58:40;;;;;;;;;;;18.50;97.70;;;;;;4969925;28;19952;-80
2022/10/10 04:01:07;;;;;;;;;;;19.00;97.30;;;;;;5069648;28;19918;-77
2022/10/10 04:03:33;;;;;;;;;;;19.50;96.20;;;;;;4968729;28;19914;-78
2022/10/10 04:06:00;;;;;;;;;;;19.70;95.50;;;;;;4968744;28;20034;-80
2022/10/10 04:08:28;;;;;;;;;;;19.80;95.10;;;;;;4969651;28;19914;-80
2022/10/10 04:10:55;;;;;;;;;;;20.10;95.30;;;;;;4981364;28;19960;-80
2022/10/10 04:13:24;;;;;;;;;;;20.90;94.10;;;;;;4969302;28;20064;-80
2022/10/10 04:15:51;;;;;;;;;;;22.00;92.30;;;;;;4969196;28;19914;-76
2022/10/10 04:18:18;;;;;;;;;;;22.20;90.50;;;;;;4968473;28;19922;-84
2022/10/10 04:20:45;;;;;;;;;;;22.40;91.20;;;;;;5039288;28;19922;-80
2022/10/10 04:23:11;;;;;;;;;;;23.00;89.60;;;;;;5034055;28;19950;-79
2022/10/10 04:25:38;;;;;;;;;;;22.90;88.70;;;;;;4967769;28;20051;-81
2022/10/10 04:28:05;;;;;;;;;;;22.40;89.40;;;;;;4968203;28;20367;-78
2022/10/10 04:30:32;;;;;;;;;;;22.20;89.20;;;;;;4968527;28;19937;-75
2022/10/10 04:32:59;;;;;;;;;;;21.80;90.90;;;;;;4968108;28;19922;-78
2022/10/10 04:35:26;;;;;;;;;;;21.50;90.00;;;;;;4969332;28;19964;-77
2022/10/10 04:37:52;;;;;;;;;;;21.00;90.70;;;;;;4967653;28;19922;-79
2022/10/10 04:40:19;;;;;;;;;;;20.60;91.30;;;;;;4967297;28;20520;-77
2022/10/10 04:42:46;;;;;;;;;;;20.10;91.70;;;;;;4967753;28;20355;-78
2022/10/10 04:45:12;;;;;;;;;;;19.60;92.40;;;;;;4982624;28;19916;-76
2022/10/10 04:47:39;;;;;;;;;;;19.30;92.80;;;;;;4972818;28;20371;-79
2022/10/10 04:50:06;;;;;;;;;;;19.20;93.10;;;;;;4975229;28;19920;-81
2022/10/10 04:52:32;;;;;;;;;;;19.10;93.50;;;;;;4981522;28;19942;-79
2022/10/10 04:54:59;;;;;;;;;;;19.10;93.80;;;;;;4971910;28;19996;-80
2022/10/10 04:57:25;;;;;;;;;;;19.10;93.80;;;;;;4966261;28;19915;-77
2022/10/10 04:59:52;;;;;;;;;;;19.10;93.60;;;;;;4970378;28;19914;-77
2022/10/10 05:02:19;;;;;;;;;;;19.20;93.50;;;;;;4971433;28;19910;-75
2022/10/10 05:04:49;;;;;;;;;;;19.40;93.80;;;;;;4971429;28;19910;-78
2022/10/10 05:07:16;;;;;;;;;;;19.50;93.10;;;;;;4970983;28;20364;-78
2022/10/10 05:09:43;;;;;;;;;;;19.60;93.10;;;;;;4972411;28;19996;-79
2022/10/10 05:12:09;;;;;;;;;;;19.40;93.10;;;;;;4970797;28;20308;-77
2022/10/10 05:14:36;;;;;;;;;;;19.10;93.50;;;;;;4970272;28;19917;-78
2022/10/10 05:17:03;;;;;;;;;;;19.70;93.10;;;;;;4974676;28;20372;-82
2022/10/10 05:19:29;;;;;;;;;;;20.80;93.60;;;;;;4973196;28;19925;-80
2022/10/10 05:21:56;;;;;;;;;;;22.00;90.30;;;;;;4970776;28;19937;-79
2022/10/10 05:24:23;;;;;;;;;;;22.30;87.30;;;;;;4971303;28;20343;-82
2022/10/10 05:26:49;;;;;;;;;;;22.30;87.50;;;;;;4953235;28;19929;-82
2022/10/10 05:29:16;;;;;;;;;;;22.20;87.60;;;;;;4970758;28;19922;-77
2022/10/10 05:31:42;;;;;;;;;;;22.00;88.10;;;;;;4987142;28;19926;-81
2022/10/10 05:34:13;;;;;;;;;;;21.60;89.20;;;;;;5035025;28;19920;-81
2022/10/10 05:36:40;;;;;;;;;;;21.20;89.70;;;;;;4957525;28;19914;-79
2022/10/10 05:39:08;;;;;;;;;;;20.70;90.10;;;;;;4968563;28;19932;-76
2022/10/10 05:41:34;;;;;;;;;;;20.00;91.00;;;;;;4996532;28;19955;-76
2022/10/10 05:44:01;;;;;;;;;;;19.70;91.40;;;;;;4979387;28;19914;-80
2022/10/10 05:46:28;;;;;;;;;;;19.30;92.20;;;;;;4953615;28;19917;-81
2022/10/10 05:48:54;;;;;;;;;;;19.10;92.90;;;;;;4970203;28;19918;-81
2022/10/10 05:51:21;;;;;;;;;;;18.80;92.70;;;;;;4969791;28;20051;-84
2022/10/10 05:53:47;;;;;;;;;;;18.50;93.50;;;;;;4997290;28;20016;-77
2022/10/10 05:56:15;;;;;;;;;;;18.30;93.70;;;;;;4970445;28;19918;-78
2022/10/10 05:58:43;;;;;;;;;;;17.90;94.00;;;;;;4970409;28;19964;-79
2022/10/10 06:01:10;;;;;;;;;;;17.60;94.50;;;;;;4975088;28;19960;-78
2022/10/10 06:03:37;;;;;;;;;;;17.50;94.70;;;;;;5011125;28;19962;-78
2022/10/10 06:06:03;;;;;;;;;;;17.40;95.50;;;;;;5012834;28;19936;-81
2022/10/10 06:08:31;;;;;;;;;;;17.40;95.10;;;;;;4969808;28;19974;-78
2022/10/10 06:11:02;;;;;;;;;;;17.30;95.60;;;;;;4976824;28;19956;-79
2022/10/10 06:13:28;;;;;;;;;;;17.20;95.50;;;;;;4970620;28;19922;-81
2022/10/10 06:15:55;;;;;;;;;;;17.20;95.40;;;;;;5004813;28;19912;-80
2022/10/10 06:18:21;;;;;;;;;;;17.10;95.80;;;;;;5013079;28;20406;-77
2022/10/10 06:20:48;;;;;;;;;;;17.10;95.80;;;;;;4973223;28;19918;-80
2022/10/10 06:23:16;;;;;;;;;;;16.90;95.70;;;;;;4969987;28;19910;-80
2022/10/10 06:25:43;;;;;;;;;;;17.00;96.10;;;;;;4970275;28;19959;-81
2022/10/10 06:28:10;;;;;;;;;;;16.90;95.90;;;;;;4970108;28;20425;-81
2022/10/10 06:30:43;;;;;;;;;;;17.00;96.70;;;;;;4980301;28;20362;-82
2022/10/10 06:33:10;;;;;;;;;;;17.00;96.20;;;;;;4985067;28;19918;-79
2022/10/10 06:35:41;;;;;;;;;;;17.00;95.90;;;;;;4952616;28;19911;-78
2022/10/10 06:38:08;;;;;;;;;;;17.00;96.40;;;;;;4969685;28;19949;-78
2022/10/10 06:40:35;;;;;;;;;;;17.00;96.40;;;;;;4980195;28;19914;-78
2022/10/10 06:43:03;;;;;;;;;;;17.00;96.30;;;;;;4986199;28;19924;-80
2022/10/10 06:45:30;;;;;;;;;;;17.00;96.00;;;;;;4969669;28;19964;-80
2022/10/10 06:47:56;;;;;;;;;;;16.90;96.10;;;;;;4969405;28;19914;-79
2022/10/10 06:50:23;;;;;;;;;;;16.80;96.10;;;;;;4969335;28;19945;-79
2022/10/10 06:52:49;;;;;;;;;;;16.70;96.30;;;;;;4970457;28;20013;-80
2022/10/10 06:55:16;;;;;;;;;;;16.80;96.50;;;;;;4968770;28;19937;-78
2022/10/10 06:57:43;;;;;;;;;;;16.70;96.30;;;;;;5045410;28;19909;-77
2022/10/10 07:00:11;;;;;;;;;;;16.70;96.60;;;;;;5071085;28;20338;-77
2022/10/10 07:02:41;;;;;;;;;;;16.70;96.70;;;;;;4976552;28;19952;-78
2022/10/10 07:05:11;;;;;;;;;;;16.70;96.90;;;;;;4973665;28;19919;-79
2022/10/10 07:07:40;;;;;;;;;;;16.60;96.80;;;;;;4970425;28;19910;-81
2022/10/10 07:10:08;;;;;;;;;;;16.60;96.60;;;;;;4970819;28;20321;-80
2022/10/10 07:12:34;;;;;;;;;;;16.60;96.60;;;;;;4970148;28;19958;-83
2022/10/10 07:15:01;;;;;;;;;;;16.60;96.50;;;;;;4971272;28;19962;-82
2022/10/10 07:17:28;;;;;;;;;;;16.60;96.50;;;;;;5037857;28;19926;-81
2022/10/10 07:19:54;;;;;;;;;;;16.60;96.60;;;;;;4970632;28;19979;-82
2022/10/10 07:22:21;;;;;;;;;;;16.50;96.80;;;;;;4968671;28;19936;-82
2022/10/10 07:24:48;;;;;;;;;;;16.50;96.70;;;;;;4970434;28;20283;-82
2022/10/10 07:27:14;;;;;;;;;;;16.50;96.50;;;;;;4992469;28;19936;-82
2022/10/10 07:29:41;;;;;;;;;;;16.50;96.70;;;;;;5071519;28;20384;-83
2022/10/10 07:32:08;;;;;;;;;;;16.50;96.80;;;;;;5071176;28;19909;-83
2022/10/10 07:34:38;;;;;;;;;;;16.40;97.00;;;;;;5071028;28;19992;-83
2022/10/10 07:37:05;;;;;;;;;;;16.50;97.50;;;;;;5071481;28;20352;-81
2022/10/10 07:39:31;;;;;;;;;;;16.50;97.30;;;;;;5021292;28;20278;-81
2022/10/10 07:41:58;;;;;;;;;;;16.50;97.30;;;;;;4969783;28;19966;-81
2022/10/10 07:44:25;;;;;;;;;;;16.50;97.10;;;;;;4969847;28;19911;-80
2022/10/10 07:46:51;;;;;;;;;;;16.40;96.90;;;;;;4976114;28;19942;-80
2022/10/10 07:49:18;;;;;;;;;;;16.40;97.20;;;;;;5071423;28;19916;-80
2022/10/10 07:51:44;;;;;;;;;;;16.30;97.30;;;;;;5071020;28;19908;-81
2022/10/10 07:54:11;;;;;;;;;;;16.20;97.50;;;;;;4977298;28;19929;-82
2022/10/10 07:56:38;;;;;;;;;;;16.10;97.70;;;;;;4969957;28;19917;-81
2022/10/10 07:59:04;;;;;;;;;;;16.10;97.90;;;;;;5068285;28;19908;-82
2022/10/10 08:01:31;;;;;;;;;;;16.00;97.90;;;;;;5070909;28;19968;-82
2022/10/10 08:03:57;;;;;;;;;;;16.00;98.10;;;;;;5052659;28;20108;-77
2022/10/10 08:06:24;;;;;;;;;;;15.90;97.90;;;;;;4967449;28;19910;-79
2022/10/10 08:08:51;;;;;;;;;;;15.80;97.90;;;;;;4969302;28;20371;-81
2022/10/10 08:11:18;;;;;;;;;;;15.80;98.10;;;;;;5035850;28;20381;-81
2022/10/10 08:13:45;;;;;;;;;;;15.80;98.70;;;;;;4969170;28;19924;-82
2022/10/10 08:16:11;;;;;;;;;;;15.80;98.50;;;;;;4968761;28;19914;-82
2022/10/10 08:18:38;;;;;;;;;;;15.70;98.50;;;;;;5049988;28;19981;-83
2022/10/10 08:21:06;;;;;;;;;;;15.70;98.50;;;;;;5052923;28;20381;-82
2022/10/10 08:23:33;;;;;;;;;;;15.70;98.50;;;;;;5071115;28;19970;-82
2022/10/10 08:26:01;;;;;;;;;;;15.70;98.80;;;;;;4989935;28;19932;-82
2022/10/10 08:28:28;;;;;;;;;;;15.60;98.70;;;;;;5040868;28;19920;-81
2022/10/10 08:30:54;;;;;;;;;;;15.60;98.80;;;;;;5033719;28;19910;-83
2022/10/10 08:33:22;;;;;;;;;;;15.50;99.00;;;;;;4967199;28;19930;-83
2022/10/10 08:35:48;;;;;;;;;;;15.50;99.40;;;;;;4975127;28;19917;-82
2022/10/10 08:38:15;;;;;;;;;;;15.40;99.50;;;;;;5036394;28;19912;-79
2022/10/10 08:40:45;;;;;;;;;;;15.30;99.50;;;;;;4988415;28;19910;-82
2022/10/10 08:43:20;;;;;;;;;;;15.30;99.80;;;;;;5010317;28;19970;-81
2022/10/10 08:45:47;;;;;;;;;;;15.20;99.90;;;;;;5040573;28;19914;-81
2022/10/10 08:48:15;;;;;;;;;;;15.10;99.90;;;;;;5036091;28;20010;-82
2022/10/10 08:50:47;;;;;;;;;;;15.10;99.90;;;;;;5075186;28;19909;-82
2022/10/10 08:53:23;;;;;;;;;;;15.00;99.90;;;;;;5036250;28;20005;-84
2022/10/10 08:55:52;;;;;;;;;;;15.00;99.90;;;;;;4971755;28;19957;-83
2022/10/10 08:58:33;;;;;;;;;;;15.00;99.90;;;;;;4972036;28;19914;-82
2022/10/10 09:00:59;;;;;;;;;;;15.00;99.90;;;;;;4972220;28;19914;-80
2022/10/10 09:03:44;;;;;;;;;;;15.00;99.90;;;;;;5019089;28;19909;-84
2022/10/10 09:06:22;;;;;;;;;;;15.00;99.90;;;;;;4983122;28;19940;-83
2022/10/10 09:08:56;;;;;;;;;;;15.00;99.90;;;;;;4971968;28;19914;-82
2022/10/10 09:11:26;;;;;;;;;;;15.00;99.90;;;;;;4972750;28;19953;-83
2022/10/10 09:13:52;;;;;;;;;;;15.00;99.90;;;;;;4971839;28;20447;-80
2022/10/10 09:16:19;;;;;;;;;;;15.10;99.90;;;;;;4971811;28;19917;-80
2022/10/10 09:19:05;;;;;;;;;;;15.00;99.90;;;;;;4972221;28;19922;-81
2022/10/10 09:21:33;;;;;;;;;;;15.00;99.90;;;;;;4972004;28;19964;-81
2022/10/10 09:24:03;;;;;;;;;;;15.00;99.90;;;;;;4971919;28;19937;-82
2022/10/10 09:26:32;;;;;;;;;;;15.00;99.90;;;;;;4972372;28;19910;-82
2022/10/10 09:29:05;;;;;;;;;;;14.90;99.90;;;;;;4971090;28;19972;-83
2022/10/10 09:31:39;;;;;;;;;;;14.90;99.90;;;;;;4972223;28;20004;-82
2022/10/10 09:34:18;;;;;;;;;;;15.00;99.90;;;;;;4971288;28;19922;-84
2022/10/10 09:36:45;;;;;;;;;;;15.00;99.90;;;;;;4971778;28;20355;-77
2022/10/10 09:39:22;;;;;;;;;;;15.00;99.90;;;;;;4971780;28;19918;-80
2022/10/10 09:41:58;;;;;;;;;;;15.00;99.90;;;;;;4971591;28;19911;-82
2022/10/10 09:44:25;;;;;;;;;;;15.00;99.90;;;;;;4967733;28;20009;-82
2022/10/10 09:46:52;;;;;;;;;;;15.00;99.90;;;;;;4970515;28;19964;-79
2022/10/10 09:49:19;;;;;;;;;;;15.00;99.90;;;;;;4971793;28;19921;-82
2022/10/10 09:51:47;;;;;;;;;;;15.00;99.90;;;;;;4971313;28;20016;-82
2022/10/10 09:54:14;;;;;;;;;;;15.00;99.90;;;;;;4971233;28;19971;-84
2022/10/10 09:56:54;;;;;;;;;;;15.00;99.90;;;;;;4971659;28;20471;-83
2022/10/10 09:59:40;;;;;;;;;;;15.00;99.90;;;;;;4952577;28;20345;-81
2022/10/10 10:02:12;;;;;;;;;;;14.90;99.90;;;;;;4952403;28;19911;-83
2022/10/10 10:04:39;;;;;;;;;;;15.00;99.90;;;;;;4969797;28;20385;-80
2022/10/10 10:07:18;;;;;;;;;;;15.00;99.90;;;;;;4970627;28;20616;-78
2022/10/10 10:09:49;;;;;;;;;;;15.00;99.90;;;;;;4951927;28;19914;-84
2022/10/10 10:12:20;;;;;;;;;;;15.10;99.90;;;;;;4953792;28;19917;-84
2022/10/10 10:14:47;;;;;;;;;;;15.00;99.90;;;;;;4970671;28;19914;-83
2022/10/10 10:17:15;;;;;;;;;;;15.00;99.90;;;;;;4971151;28;20016;-82
2022/10/10 10:19:43;;;;;;;;;;;14.90;99.90;;;;;;4971796;28;19910;-81
2022/10/10 10:22:23;;;;;;;;;;;14.90;99.90;;;;;;4971464;28;20012;-81
2022/10/10 10:24:50;;;;;;;;;;;14.80;99.90;;;;;;5029383;28;20321;-83
2022/10/10 10:27:18;;;;;;;;;;;14.80;99.90;;;;;;4971248;28;19918;-82
2022/10/10 10:29:49;;;;;;;;;;;14.80;99.90;;;;;;4970848;28;19925;-83
2022/10/10 10:32:19;;;;;;;;;;;14.80;99.90;;;;;;4971118;28;19910;-83
2022/10/10 10:35:04;;;;;;;;;;;14.70;99.90;;;;;;5029192;28;20290;-80
2022/10/10 10:37:42;;;;;;;;;;;14.70;99.90;;;;;;4970294;28;19923;-84
2022/10/10 10:40:23;;;;;;;;;;;14.70;99.90;;;;;;4970169;28;19914;-83
2022/10/10 10:42:52;;;;;;;;;;;14.60;99.90;;;;;;4969446;28;20037;-84
2022/10/10 10:45:22;;;;;;;;;;;14.70;99.90;;;;;;5072631;28;20322;-83
2022/10/10 10:47:54;;;;;;;;;;;14.60;99.90;;;;;;5072251;28;19941;-83
2022/10/10 10:50:30;;;;;;;;;;;14.70;99.90;;;;;;5054143;28;20425;-82
2022/10/10 10:53:17;;;;;;;;;;;14.70;99.90;;;;;;5024780;28;19916;-82
2022/10/10 10:55:46;;;;;;;;;;;14.70;99.90;;;;;;4950454;28;19968;-84
2022/10/10 10:58:40;;;;;;;;;;;14.70;99.90;;;;;;4970604;28;19953;-84
2022/10/10 11:01:14;;;;;;;;;;;14.80;99.90;;;;;;4970435;28;19914;-81
2022/10/10 11:03:40;;;;;;;;;;;14.70;99.90;;;;;;5022224;28;20291;-81
2022/10/10 11:06:22;;;;;;;;;;;14.70;99.90;;;;;;5071993;28;19954;-82
2022/10/10 11:09:01;;;;;;;;;;;14.70;99.90;;;;;;5071938;28;19912;-81
2022/10/10 11:11:34;;;;;;;;;;;14.70;99.90;;;;;;5072253;28;20434;-80
2022/10/10 11:14:00;;;;;;;;;;;14.70;99.90;;;;;;5018526;28;20334;-82
2022/10/10 11:16:29;;;;;;;;;;;14.70;99.90;;;;;;4969871;28;19914;-80
2022/10/10 11:19:19;;;;;;;;;;;14.60;99.90;;;;;;4970071;28;19972;-83
2022/10/10 11:21:54;;;;;;;;;;;14.70;99.90;;;;;;4970139;28;20375;-83
2022/10/10 11:24:31;;;;;;;;;;;14.70;99.90;;;;;;5050184;28;20014;-82
2022/10/10 11:27:01;;;;;;;;;;;14.70;99.90;;;;;;5071340;28;19931;-83
2022/10/10 11:29:47;;;;;;;;;;;14.60;99.90;;;;;;5054097;28;20312;-82
2022/10/10 11:32:20;;;;;;;;;;;14.70;99.90;;;;;;5071686;28;20322;-83
2022/10/10 11:35:12;;;;;;;;;;;14.70;99.90;;;;;;5071005;28;19999;-83
2022/10/10 11:37:42;;;;;;;;;;;14.70;99.90;;;;;;5033137;28;19908;-82
2022/10/10 11:40:17;;;;;;;;;;;14.70;99.90;;;;;;5071516;28;19917;-83
2022/10/10 11:42:52;;;;;;;;;;;14.60;99.90;;;;;;5056362;28;19915;-82
2022/10/10 11:45:22;;;;;;;;;;;14.70;99.90;;;;;;5036047;28;19918;-82
2022/10/10 11:47:55;;;;;;;;;;;14.60;99.90;;;;;;4970164;28;19919;-83
2022/10/10 11:50:29;;;;;;;;;;;14.60;99.90;;;;;;4970230;28;20382;-83
2022/10/10 11:52:55;;;;;;;;;;;14.60;99.90;;;;;;4989745;28;19999;-82
2022/10/10 11:55:27;;;;;;;;;;;14.60;99.90;;;;;;5053199;28;20004;-83
2022/10/10 11:57:58;;;;;;;;;;;14.70;99.90;;;;;;5071148;28;19916;-82
2022/10/10 12:00:28;;;;;;;;;;;14.60;99.90;;;;;;5071356;28;19909;-84
2022/10/10 12:02:56;;;;;;;;;;;14.60;99.90;;;;;;5071056;28;19917;-82
2022/10/10 12:05:22;;;;;;;;;;;14.70;99.90;;;;;;5071454;28;20276;-82
2022/10/10 12:08:00;;;;;;;;;;;14.70;99.90;;;;;;5070883;28;19913;-83
2022/10/10 12:10:31;;;;;;;;;;;14.70;99.90;;;;;;5071117;28;19908;-81
2022/10/10 12:13:07;;;;;;;;;;;14.70;99.90;;;;;;5043757;28;20357;-83
2022/10/10 12:15:35;;;;;;;;;;;14.70;99.90;;;;;;5035953;28;19928;-81
2022/10/10 12:18:02;;;;;;;;;;;14.60;99.90;;;;;;4969964;28;19922;-81
2022/10/10 12:20:34;;;;;;;;;;;14.70;99.90;;;;;;5052552;28;19923;-84
2022/10/10 12:23:19;;;;;;;;;;;14.70;99.90;;;;;;5047156;28;19917;-81
2022/10/10 12:25:46;;;;;;;;;;;14.70;99.90;;;;;;5035898;28;19957;-83
2022/10/10 12:28:13;;;;;;;;;;;14.70;99.90;;;;;;4969135;28;19911;-81
2022/10/10 12:30:52;;;;;;;;;;;14.70;99.90;;;;;;4969787;28;19910;-80
2022/10/10 12:33:19;;;;;;;;;;;14.60;99.90;;;;;;4999505;28;19934;-80
2022/10/10 12:35:47;;;;;;;;;;;14.60;99.90;;;;;;4969117;28;20374;-83
2022/10/10 12:38:18;;;;;;;;;;;14.50;99.90;;;;;;4969063;28;19911;-80
2022/10/10 12:40:56;;;;;;;;;;;14.40;99.90;;;;;;4969618;28;20280;-83
2022/10/10 12:43:25;;;;;;;;;;;14.40;99.90;;;;;;5008298;28;19959;-80
2022/10/10 12:45:56;;;;;;;;;;;14.30;99.90;;;;;;5071178;28;20360;-82
2022/10/10 12:48:23;;;;;;;;;;;14.40;99.90;;;;;;5071032;28;19962;-82
2022/10/10 12:50:58;;;;;;;;;;;14.30;99.90;;;;;;5070646;28;19909;-80
2022/10/10 12:53:26;;;;;;;;;;;14.20;99.90;;;;;;5070060;28;19920;-82
2022/10/10 12:55:53;;;;;;;;;;;14.20;99.90;;;;;;5070705;28;19961;-82
2022/10/10 12:58:28;;;;;;;;;;;14.20;99.90;;;;;;5012459;28;19917;-82
2022/10/10 13:00:59;;;;;;;;;;;14.20;99.90;;;;;;4968973;28;19920;-82
2022/10/10 13:03:35;;;;;;;;;;;14.10;99.90;;;;;;4968484;28;19911;-82
2022/10/10 13:06:07;;;;;;;;;;;14.10;99.90;;;;;;4969082;28;19962;-82
2022/10/10 13:08:38;;;;;;;;;;;14.10;99.90;;;;;;4968676;28;20014;-82
2022/10/10 13:11:10;;;;;;;;;;;14.00;99.90;;;;;;4968542;28;19914;-81
2022/10/10 13:13:47;;;;;;;;;;;14.00;99.90;;;;;;5017717;28;19970;-81
2022/10/10 13:16:15;;;;;;;;;;;13.90;99.90;;;;;;5070049;28;20426;-80
2022/10/10 13:18:47;;;;;;;;;;;13.90;99.90;;;;;;5070610;28;19966;-80
2022/10/10 13:21:17;;;;;;;;;;;13.90;99.90;;;;;;5074423;28;20408;-80
2022/10/10 13:23:45;;;;;;;;;;;13.80;99.90;;;;;;5047752;28;19914;-81
2022/10/10 13:26:22;;;;;;;;;;;13.80;99.90;;;;;;4972163;28;19914;-82
2022/10/10 13:28:53;;;;;;;;;;;13.80;99.90;;;;;;4972430;28;19921;-81
2022/10/10 13:31:19;;;;;;;;;;;13.70;99.90;;;;;;4972316;28;20446;-81
2022/10/10 13:33:46;;;;;;;;;;;13.70;99.90;;;;;;4971584;28;19925;-81
2022/10/10 13:36:20;;;;;;;;;;;13.60;99.90;;;;;;4971922;28;20447;-81
2022/10/10 13:38:50;;;;;;;;;;;13.60;99.90;;;;;;4972078;28;20070;-81
2022/10/10 13:41:18;;;;;;;;;;;13.60;99.90;;;;;;4972135;28;19932;-81
2022/10/10 13:43:44;;;;;;;;;;;13.70;99.90;;;;;;5026293;28;19948;-80
2022/10/10 13:46:21;;;;;;;;;;;13.80;99.90;;;;;;5074067;28;19908;-81
2022/10/10 13:48:49;;;;;;;;;;;13.70;99.90;;;;;;5073702;28;19916;-81
2022/10/10 13:51:16;;;;;;;;;;;13.70;99.90;;;;;;5055349;28;19908;-80
2022/10/10 13:53:44;;;;;;;;;;;13.80;99.90;;;;;;5073381;28;20464;-81
2022/10/10 13:56:16;;;;;;;;;;;13.80;99.90;;;;;;5074140;28;19923;-81
2022/10/10 13:58:46;;;;;;;;;;;13.80;99.90;;;;;;5073725;28;19908;-80
2022/10/10 14:01:18;;;;;;;;;;;13.80;99.90;;;;;;5073328;28;20062;-79
2022/10/10 14:03:46;;;;;;;;;;;13.90;99.90;;;;;;5037457;28;19920;-82
2022/10/10 14:06:20;;;;;;;;;;;13.80;99.90;;;;;;4971434;28;20363;-81
2022/10/10 14:08:47;;;;;;;;;;;13.90;99.90;;;;;;4971934;28;19911;-81
2022/10/10 14:11:16;;;;;;;;;;;13.90;99.90;;;;;;4971710;28;20008;-81
2022/10/10 14:13:46;;;;;;;;;;;13.90;99.90;;;;;;5022436;28;19920;-81
2022/10/10 14:16:19;;;;;;;;;;;13.90;99.90;;;;;;5073104;28;19912;-79
2022/10/10 14:18:45;;;;;;;;;;;13.90;99.90;;;;;;5073244;28;19927;-81
2022/10/10 14:21:12;;;;;;;;;;;13.90;99.90;;;;;;5073055;28;20380;-81
2022/10/10 14:23:39;;;;;;;;;;;14.00;99.90;;;;;;5072574;28;20018;-81
2022/10/10 14:26:07;;;;;;;;;;;14.00;99.90;;;;;;5072945;28;19948;-82
2022/10/10 14:28:34;;;;;;;;;;;14.00;99.90;;;;;;5073047;28;19968;-81
2022/10/10 14:31:01;;;;;;;;;;;14.00;99.90;;;;;;5072059;28;19913;-81